createdAt,value
2022-12-19T00:01:55.363Z,996.85
2022-12-19T00:07:55.308Z,996.78
2022-12-19T00:13:55.327Z,996.84
2022-12-19T00:19:55.320Z,996.76
2022-12-19T00:25:55.355Z,996.83
2022-12-19T00:31:55.471Z,996.80
2022-12-19T00:37:55.375Z,996.89
2022-12-19T00:43:55.303Z,996.81
2022-12-19T00:49:55.353Z,996.86
2022-12-19T00:55:55.354Z,996.86
2022-12-19T01:01:55.445Z,996.74
2022-12-19T01:07:55.346Z,996.89
2022-12-19T01:13:55.356Z,996.85
2022-12-19T01:19:55.363Z,996.66
2022-12-19T01:25:55.355Z,996.47
2022-12-19T01:31:55.449Z,996.34
2022-12-19T01:38:07.608Z,996.41
2022-12-19T01:43:55.382Z,996.25
2022-12-19T01:49:55.406Z,996.26
2022-12-19T01:55:55.399Z,996.29
2022-12-19T02:01:55.447Z,996.26
2022-12-19T02:07:55.379Z,996.15
2022-12-19T02:13:55.383Z,996.15
2022-12-19T02:19:55.386Z,996.07
2022-12-19T02:25:56.795Z,996.07
2022-12-19T02:31:55.515Z,995.96
2022-12-19T02:37:55.411Z,996.02
2022-12-19T02:43:58.932Z,995.98
2022-12-19T02:49:55.446Z,995.87
2022-12-19T02:55:55.418Z,995.99
2022-12-19T03:01:55.510Z,995.87
2022-12-19T03:07:55.425Z,995.91
2022-12-19T03:13:55.440Z,995.79
2022-12-19T03:19:55.450Z,995.70
2022-12-19T03:25:55.488Z,995.78
2022-12-19T03:31:55.488Z,995.81
2022-12-19T03:37:55.499Z,995.88
2022-12-19T03:43:55.463Z,995.63
2022-12-19T03:49:55.456Z,995.72
2022-12-19T03:55:55.489Z,995.63
2022-12-19T04:01:55.555Z,995.52
2022-12-19T04:07:55.502Z,995.60
2022-12-19T04:13:55.506Z,995.62
2022-12-19T04:19:55.521Z,995.69
2022-12-19T04:25:55.495Z,995.66
2022-12-19T04:31:55.496Z,995.60
2022-12-19T04:37:55.536Z,995.68
2022-12-19T04:43:55.546Z,995.65
2022-12-19T04:49:55.541Z,995.52
2022-12-19T04:55:55.506Z,995.56
2022-12-19T05:01:55.637Z,995.43
2022-12-19T05:07:55.556Z,995.32
2022-12-19T05:13:55.551Z,995.17
2022-12-19T05:19:55.549Z,995.17
2022-12-19T05:25:55.566Z,995.27
2022-12-19T05:31:55.579Z,995.45
2022-12-19T05:37:55.581Z,995.43
2022-12-19T05:43:55.558Z,995.36
2022-12-19T05:49:55.572Z,995.44
2022-12-19T05:55:55.602Z,995.42
2022-12-19T06:01:55.550Z,995.40
2022-12-19T06:07:55.530Z,995.37
2022-12-19T06:13:55.573Z,995.47
2022-12-19T06:19:55.619Z,995.62
2022-12-19T06:25:55.613Z,995.70
2022-12-19T06:31:55.585Z,995.68
2022-12-19T06:38:00.804Z,995.70
2022-12-19T06:43:55.600Z,995.71
2022-12-19T06:49:55.590Z,995.65
2022-12-19T06:55:55.600Z,995.63
2022-12-19T07:01:55.653Z,995.72
2022-12-19T07:07:55.601Z,995.77
2022-12-19T07:13:55.595Z,995.74
2022-12-19T07:19:55.652Z,995.80
2022-12-19T07:25:55.686Z,995.85
2022-12-19T07:31:55.712Z,995.81
2022-12-19T07:37:55.675Z,995.85
2022-12-19T07:43:55.653Z,996.01
2022-12-19T07:49:55.655Z,995.99
2022-12-19T07:55:55.686Z,996.15
2022-12-19T08:01:55.844Z,996.09
2022-12-19T08:07:55.644Z,996.09
2022-12-19T08:13:55.689Z,996.17
2022-12-19T08:19:55.702Z,996.02
2022-12-19T08:25:55.643Z,996.03
2022-12-19T08:31:55.725Z,995.99
2022-12-19T08:37:55.703Z,995.92
2022-12-19T08:43:55.692Z,996.14
2022-12-19T08:49:55.701Z,996.11
2022-12-19T08:55:55.705Z,996.02
2022-12-19T09:01:55.789Z,996.04
2022-12-19T09:07:55.724Z,996.10
2022-12-19T09:13:55.729Z,996.06
2022-12-19T09:19:55.684Z,996.04
2022-12-19T09:25:55.694Z,996.00
2022-12-19T09:31:57.123Z,995.92
2022-12-19T09:37:59.853Z,995.95
2022-12-19T09:43:55.738Z,995.86
2022-12-19T09:49:55.714Z,995.78
2022-12-19T09:55:55.718Z,995.86
2022-12-19T10:01:55.839Z,995.77
2022-12-19T10:08:08.336Z,995.84
2022-12-19T10:13:55.716Z,995.72
2022-12-19T10:19:55.791Z,995.66
2022-12-19T10:25:55.780Z,995.59
2022-12-19T10:31:55.876Z,995.56
2022-12-19T10:37:55.755Z,995.49
2022-12-19T10:43:55.786Z,995.45
2022-12-19T10:49:55.762Z,995.49
2022-12-19T10:55:55.822Z,995.61
2022-12-19T11:02:00.466Z,995.52
2022-12-19T11:07:55.821Z,995.53
2022-12-19T11:20:00.709Z,995.48
2022-12-19T11:29:39.168Z,995.60
2022-12-19T11:30:38.167Z,995.56
2022-12-19T11:32:36.627Z,995.52
2022-12-19T11:37:56.073Z,995.46
2022-12-19T11:43:55.797Z,995.42
2022-12-19T11:49:55.756Z,995.44
2022-12-19T11:55:55.836Z,995.35
2022-12-19T12:01:55.845Z,995.35
2022-12-19T12:09:30.384Z,995.11
2022-12-19T12:25:21.406Z,995.16
2022-12-19T12:31:17.720Z,994.94
2022-12-19T12:31:38.592Z,995.02
2022-12-19T12:35:30.671Z,994.95
2022-12-19T12:38:22.454Z,995.05
2022-12-19T12:43:55.853Z,994.88
2022-12-19T12:49:55.852Z,994.68
2022-12-19T12:55:55.838Z,994.72
2022-12-19T13:01:56.117Z,994.58
2022-12-19T13:07:55.876Z,994.56
2022-12-19T13:13:56.275Z,994.47
2022-12-19T13:19:55.856Z,994.49
2022-12-19T13:25:55.889Z,994.43
2022-12-19T13:31:55.898Z,994.43
2022-12-19T13:39:59.625Z,994.33
2022-12-19T13:43:55.882Z,994.12
2022-12-19T13:49:55.889Z,994.05
2022-12-19T13:55:55.923Z,994.23
2022-12-19T14:01:56.078Z,994.23
2022-12-19T14:07:55.889Z,994.04
2022-12-19T14:14:03.393Z,994.03
2022-12-19T14:20:34.152Z,994.03
2022-12-19T14:28:17.164Z,994.07
2022-12-19T14:31:58.597Z,994.12
2022-12-19T14:39:01.258Z,994.02
2022-12-19T14:50:16.349Z,994.03
2022-12-19T14:54:02.259Z,994.11
2022-12-19T14:56:16.907Z,994.06
2022-12-19T15:01:56.057Z,993.87
2022-12-19T15:07:55.963Z,994.05
2022-12-19T15:14:56.429Z,993.94
2022-12-19T15:19:55.931Z,993.99
2022-12-19T15:26:04.560Z,994.01
2022-12-19T15:31:56.029Z,994.14
2022-12-19T15:37:55.999Z,994.29
2022-12-19T15:44:04.580Z,994.14
2022-12-19T15:49:55.945Z,994.15
2022-12-19T15:55:56.016Z,994.16
2022-12-19T16:01:56.185Z,994.16
2022-12-19T16:07:55.972Z,994.19
2022-12-19T16:13:56.010Z,994.18
2022-12-19T16:19:55.972Z,993.98
2022-12-19T16:25:56.013Z,993.96
2022-12-19T16:31:56.111Z,994.15
2022-12-19T16:37:56.009Z,994.18
2022-12-19T16:43:56.034Z,994.16
2022-12-19T16:49:56.045Z,994.13
2022-12-19T16:55:56.032Z,994.00
2022-12-19T17:01:56.242Z,993.81
2022-12-19T17:07:56.026Z,993.77
2022-12-19T17:13:56.029Z,993.72
2022-12-19T17:19:56.011Z,993.73
2022-12-19T17:25:56.078Z,993.80
2022-12-19T17:31:56.125Z,993.88
2022-12-19T17:37:56.056Z,993.82
2022-12-19T17:43:56.445Z,993.83
2022-12-19T17:49:56.097Z,993.74
2022-12-19T17:55:56.069Z,993.71
2022-12-19T18:01:56.205Z,993.79
2022-12-19T18:07:56.101Z,993.61
2022-12-19T18:13:56.096Z,993.67
2022-12-19T18:19:56.125Z,993.65
2022-12-19T18:26:01.261Z,993.72
2022-12-19T18:31:56.124Z,993.78
2022-12-19T18:37:56.106Z,993.87
2022-12-19T18:43:56.107Z,993.86
2022-12-19T18:49:56.108Z,993.71
2022-12-19T18:55:56.101Z,993.61
2022-12-19T19:01:56.226Z,993.66
2022-12-19T19:07:56.142Z,993.65
2022-12-19T19:13:56.162Z,993.54
2022-12-19T19:19:56.144Z,993.41
2022-12-19T19:25:56.140Z,993.32
2022-12-19T19:31:56.165Z,993.44
2022-12-19T19:37:56.439Z,993.39
2022-12-19T19:43:56.108Z,993.38
2022-12-19T19:49:56.190Z,993.30
2022-12-19T19:55:56.190Z,993.49
2022-12-19T20:01:56.276Z,993.38
2022-12-19T20:07:56.175Z,993.36
2022-12-19T20:13:56.197Z,993.20
2022-12-19T20:19:56.336Z,993.14
2022-12-19T20:25:56.207Z,993.30
2022-12-19T20:31:56.175Z,993.25
2022-12-19T20:37:56.174Z,993.20
2022-12-19T20:43:56.148Z,992.99
2022-12-19T20:49:56.162Z,992.86
2022-12-19T20:55:58.252Z,992.91
2022-12-19T21:01:56.313Z,992.86
2022-12-19T21:07:56.205Z,992.88
2022-12-19T21:13:56.219Z,992.76
2022-12-19T21:19:56.252Z,992.71
2022-12-19T21:25:56.217Z,992.57
2022-12-19T21:31:56.219Z,992.61
2022-12-19T21:37:56.205Z,992.76
2022-12-19T21:43:56.235Z,992.98
2022-12-19T21:49:56.249Z,993.02
2022-12-19T21:55:56.249Z,992.85
2022-12-19T22:01:56.437Z,992.60
2022-12-19T22:07:56.232Z,992.40
2022-12-19T22:13:56.258Z,992.34
2022-12-19T22:19:56.250Z,992.33
2022-12-19T22:25:56.232Z,992.04
2022-12-19T22:31:56.318Z,992.11
2022-12-19T22:37:56.284Z,992.25
2022-12-19T22:43:56.240Z,992.29
2022-12-19T22:49:56.251Z,992.21
2022-12-19T22:55:56.284Z,992.11
2022-12-19T23:01:56.442Z,992.16
2022-12-19T23:07:56.288Z,992.17
2022-12-19T23:13:56.314Z,992.07
2022-12-19T23:19:56.282Z,991.98
2022-12-19T23:25:56.331Z,991.85
2022-12-19T23:31:56.339Z,991.83
2022-12-19T23:37:56.322Z,991.78
2022-12-19T23:43:56.330Z,991.74
2022-12-19T23:49:56.343Z,991.66
2022-12-19T23:55:56.367Z,991.65
